Flight Track Log - Related Links

Times and Time Zones

All times are in EDT time to prevent confusion due to time zone crossing. See the UAL3740 flight status page for this flight to view local times or setup timezone preferences in your user account.

Time Position Orientation Groundspeed Altitude Reporting Facility
EDT Latitude Longitude Course Direction KTS MPH feet Rate Location/Type
Tue 10:20:38 41.6961 -71.4725 244° Southwest 179 206 1,900  Level Boston Center
Tue 10:21:26 41.6964 -71.5142 271° West 200 230 4,000 2,222 Climbing Boston Center
Tue 10:22:26 41.6992 -71.5919 273° West 258 297 5,900 2,033 Climbing Boston Center
Tue 10:23:27 41.7869 -71.6272 343° North 272 313 8,100 1,091 Climbing Boston Center
Tue 10:24:27 41.8661 -71.6511 347° North 284 327 8,100 600 Level Boston Center
Tue 10:25:27 41.9250 -71.6978 329° Northwest 281 323 9,300 1,932 Climbing Boston Center
Tue 10:26:25 41.9506 -71.8092 287° West 254 292 11,900 2,319 Climbing Boston Center
Tue 10:27:26 41.9697 -71.9039 285° West 277 319 13,900 2,430 Climbing Boston Center
Tue 10:28:26 41.9994 -72.0267 288° West 306 352 16,800 1,934 Climbing Boston Center
Tue 10:29:27 42.0269 -72.1411 288° West 321 369 17,800 1,289 Climbing Boston Center
Tue 10:30:27 42.0542 -72.2556 288° West 337 388 19,400 1,831 Climbing Boston Center
Tue 10:31:25 42.0772 -72.3814 284° West 342 394 21,400 1,780 Climbing Boston Center
Tue 10:32:25 42.0564 -72.5100 258° West 347 399 22,900 1,550 Climbing Boston Center
Tue 10:33:25 42.0333 -72.6414 257° West 352 405 24,500 1,525 Climbing Boston Center
Tue 10:34:27 42.0103 -72.7753 257° West 358 412 26,000 1,500 Climbing Boston Center
Tue 10:35:25 41.9847 -72.9150 256° West 377 434 27,500 1,322 Climbing Boston Center
Tue 10:36:25 41.9547 -73.0597 254° West 385 443 28,600 1,091 Climbing Boston Center
Tue 10:37:26 41.8853 -73.1819 233° Southwest 396 456 29,700 1,180 Climbing Boston Center
Tue 10:38:27 41.8136 -73.2897 228° Southwest 403 464 31,000 730 Climbing Boston Center
Tue 10:40:35 41.6350 -73.5439 227° Southwest 408 470 32,000 316 Climbing New York Center
Tue 10:41:37 41.5658 -73.6519 229° Southwest 422 486 32,000  Level New York Center
Tue 10:42:34 41.4817 -73.7703 227° Southwest 435 501 32,000  Level New York Center
Tue 10:43:35 41.3994 -73.8936 228° Southwest 447 514 32,000  Level New York Center
Tue 10:44:37 41.3150 -74.0139 227° Southwest 447 514 32,000 -50 Level New York Center
Tue 10:45:34 41.2325 -74.1342 228° Southwest 452 520 31,900  Descending New York Center
Tue 10:46:35 41.1350 -74.2642 225° Southwest 452 520 32,000  Climbing New York Center
Tue 10:47:36 41.0500 -74.3864 227° Southwest 457 526 31,900 -1,091 Descending New York Center
Tue 10:48:36 40.9653 -74.5028 226° Southwest 457 526 29,800 -1,966 Descending New York Center
Tue 10:49:35 40.8947 -74.6197 231° Southwest 437 503 28,000 -908 Descending New York Center
Tue 10:50:35 40.8594 -74.7383 249° West 382 440 28,000 -446 Level New York Center
Tue 10:51:36 40.8244 -74.8514 248° West 358 412 27,100 -1,190 Descending New York Center
Tue 10:52:36 40.7892 -74.9644 248° West 346 398 25,600 -1,041 Descending New York Center
Tue 10:53:37 40.7539 -75.0775 248° West 346 398 25,000 -305 Descending New York Center
Tue 10:54:34 40.7206 -75.1903 249° West 341 392 25,000  Level New York Center
Tue 10:55:34 40.6850 -75.3031 247° West 341 392 25,000 -347 Level New York Center
Tue 10:56:35 40.6428 -75.4233 245° Southwest 352 405 24,300 -1,122 Descending New York Center
Tue 10:57:37 40.5861 -75.5425 238° Southwest 366 421 22,700 -1,513 Descending New York Center
Tue 10:58:34 40.5192 -75.6469 230° Southwest 380 437 21,300 -1,373 Descending New York Center
Tue 10:59:35 40.4544 -75.7489 230° Southwest 380 437 20,000 -645 Descending New York Center
Tue 11:00:35 40.3939 -75.8506 232° Southwest 374 430 20,000  Level New York Center
Tue 11:01:36 40.3314 -75.9494 230° Southwest 384 442 20,000  Level New York Center
Tue 11:02:36 40.2683 -76.0536 232° Southwest 384 442 20,000 -610 Level New York Center
Tue 11:03:34 40.2075 -76.1522 231° Southwest 373 429 18,800 -1,311 Descending New York Center
Tue 11:04:35 40.1378 -76.2636 231° Southwest 366 421 17,400 -1,426 Descending New York Center
Tue 11:05:36 40.0850 -76.3681 237° Southwest 358 412 15,900 -716 Descending New York Center
Tue 11:07:56 39.9667 -76.6167 238° Southwest 343 395 15,000 -269 Descending Potomac TRACON
Tue 11:08:57 39.9167 -76.7167 237° Southwest 344 396 15,000  Level Potomac TRACON
Tue 11:09:51 39.8833 -76.8167 247° West 337 388 15,000 -365 Level Potomac TRACON
Tue 11:10:52 39.8333 -76.9167 237° Southwest 298 343 14,300 -744 Descending Potomac TRACON
Tue 11:11:52 39.8000 -77.0000 243° Southwest 281 323 13,500 -1,053 Descending Potomac TRACON
Tue 11:12:46 39.7500 -77.0833 232° Southwest 279 321 12,300 -1,263 Descending Potomac TRACON
Tue 11:13:46 39.7167 -77.1667 243° Southwest 278 320 11,100 -843 Descending Potomac TRACON
Tue 11:14:47 39.6833 -77.2667 247° West 302 348 10,600 -843 Descending Potomac TRACON
Tue 11:15:47 39.6333 -77.3333 226° Southwest 269 310 9,400 -1,263 Descending Potomac TRACON
Tue 11:16:41 39.6000 -77.3833 229° Southwest 251 289 8,200 -730 Descending Potomac TRACON
Tue 11:17:42 39.5500 -77.4500 226° Southwest 235 270 8,000 -99 Descending Potomac TRACON
Tue 11:18:42 39.5000 -77.4667 194° South 246 283 8,000 -100 Level Potomac TRACON
Tue 11:19:42 39.4333 -77.4500 169° South 247 284 7,800 -650 Descending Potomac TRACON
Tue 11:20:42 39.3667 -77.4500 180° South 245 282 6,700 -893 Descending Potomac TRACON
Tue 11:21:43 39.3000 -77.4500 180° South 217 250 6,000 -992 Descending Potomac TRACON
Tue 11:22:43 39.2500 -77.4833 207° Southwest 193 222 4,700 -1,000 Descending Potomac TRACON
Tue 11:23:43 39.2000 -77.4833 180° South 177 204 4,000 -350 Descending Potomac TRACON
Tue 11:24:43 39.1667 -77.4500 142° Southeast 173 199 4,000 -250 Level Potomac TRACON
Tue 11:25:43 39.1167 -77.4500 180° South 153 176 3,500 -800 Descending Potomac TRACON
Tue 11:26:43 39.0833 -77.4500 180° South 154 177 2,400 -950 Descending Potomac TRACON
Tue 11:27:43 39.0333 -77.4667 195° South 151 174 1,600 -744 Descending Potomac TRACON
Tue 11:28:44 39.0000 -77.4667 180° South 127 146 900 -689 Descending Potomac TRACON
Tue 11:30:00 38.9474 -77.4599 167° South  Level Estimated

Login

Don't have an account? Register now (free) for customized features, flight alerts, and more!